sensor_id;sensor_type;location;lat;lon;timestamp;P1;durP1;ratioP1;P2;durP2;ratioP2
12433;SDS011;6281;49.038;8.372;2023-08-21T00:01:32;5.88;;;5.13;;
12433;SDS011;6281;49.038;8.372;2023-08-21T00:03:59;9.27;;;5.68;;
12433;SDS011;6281;49.038;8.372;2023-08-21T00:06:26;6.43;;;5.80;;
12433;SDS011;6281;49.038;8.372;2023-08-21T00:08:52;6.45;;;5.65;;
12433;SDS011;6281;49.038;8.372;2023-08-21T00:11:19;6.30;;;5.70;;
12433;SDS011;6281;49.038;8.372;2023-08-21T00:13:46;12.32;;;5.80;;
12433;SDS011;6281;49.038;8.372;2023-08-21T00:16:16;6.72;;;5.93;;
12433;SDS011;6281;49.038;8.372;2023-08-21T00:18:43;8.73;;;5.88;;
12433;SDS011;6281;49.038;8.372;2023-08-21T00:21:09;8.13;;;6.07;;
12433;SDS011;6281;49.038;8.372;2023-08-21T00:23:36;8.05;;;5.70;;
12433;SDS011;6281;49.038;8.372;2023-08-21T00:26:04;6.67;;;5.80;;
12433;SDS011;6281;49.038;8.372;2023-08-21T00:28:30;8.40;;;5.85;;
12433;SDS011;6281;49.038;8.372;2023-08-21T00:31:00;7.90;;;6.13;;
12433;SDS011;6281;49.038;8.372;2023-08-21T00:33:28;6.47;;;5.77;;
12433;SDS011;6281;49.038;8.372;2023-08-21T00:35:56;6.43;;;5.83;;
12433;SDS011;6281;49.038;8.372;2023-08-21T00:38:23;6.37;;;5.77;;
12433;SDS011;6281;49.038;8.372;2023-08-21T00:40:50;8.20;;;5.90;;
12433;SDS011;6281;49.038;8.372;2023-08-21T00:43:17;8.43;;;6.33;;
12433;SDS011;6281;49.038;8.372;2023-08-21T00:45:45;6.90;;;5.73;;
12433;SDS011;6281;49.038;8.372;2023-08-21T00:48:13;10.23;;;6.17;;
12433;SDS011;6281;49.038;8.372;2023-08-21T00:50:42;6.50;;;5.80;;
12433;SDS011;6281;49.038;8.372;2023-08-21T00:53:10;7.47;;;6.13;;
12433;SDS011;6281;49.038;8.372;2023-08-21T00:55:37;9.13;;;6.10;;
12433;SDS011;6281;49.038;8.372;2023-08-21T01:00:50;7.63;;;6.47;;
12433;SDS011;6281;49.038;8.372;2023-08-21T01:03:19;6.73;;;6.00;;
12433;SDS011;6281;49.038;8.372;2023-08-21T01:05:47;9.23;;;6.50;;
12433;SDS011;6281;49.038;8.372;2023-08-21T01:10:56;7.47;;;5.83;;
12433;SDS011;6281;49.038;8.372;2023-08-21T01:13:32;7.37;;;6.00;;
12433;SDS011;6281;49.038;8.372;2023-08-21T01:16:08;6.70;;;5.93;;
12433;SDS011;6281;49.038;8.372;2023-08-21T01:18:36;6.97;;;6.03;;
12433;SDS011;6281;49.038;8.372;2023-08-21T01:21:06;7.67;;;6.57;;
12433;SDS011;6281;49.038;8.372;2023-08-21T01:23:35;8.10;;;5.97;;
12433;SDS011;6281;49.038;8.372;2023-08-21T01:26:02;7.93;;;6.03;;
12433;SDS011;6281;49.038;8.372;2023-08-21T01:28:29;8.47;;;6.17;;
12433;SDS011;6281;49.038;8.372;2023-08-21T01:30:59;7.10;;;6.40;;
12433;SDS011;6281;49.038;8.372;2023-08-21T01:33:31;6.53;;;5.73;;
12433;SDS011;6281;49.038;8.372;2023-08-21T01:36:03;6.40;;;5.80;;
12433;SDS011;6281;49.038;8.372;2023-08-21T01:38:31;6.83;;;6.23;;
12433;SDS011;6281;49.038;8.372;2023-08-21T01:41:01;6.73;;;6.03;;
12433;SDS011;6281;49.038;8.372;2023-08-21T01:43:28;7.30;;;6.10;;
12433;SDS011;6281;49.038;8.372;2023-08-21T01:45:55;6.80;;;6.10;;
12433;SDS011;6281;49.038;8.372;2023-08-21T01:48:22;8.43;;;6.73;;
12433;SDS011;6281;49.038;8.372;2023-08-21T01:50:49;7.03;;;6.33;;
12433;SDS011;6281;49.038;8.372;2023-08-21T01:53:16;7.40;;;6.50;;
12433;SDS011;6281;49.038;8.372;2023-08-21T01:55:42;6.97;;;5.87;;
12433;SDS011;6281;49.038;8.372;2023-08-21T01:58:10;8.37;;;7.43;;
12433;SDS011;6281;49.038;8.372;2023-08-21T02:00:37;7.97;;;5.77;;
12433;SDS011;6281;49.038;8.372;2023-08-21T02:03:05;8.93;;;6.43;;
12433;SDS011;6281;49.038;8.372;2023-08-21T02:05:36;8.17;;;6.53;;
12433;SDS011;6281;49.038;8.372;2023-08-21T02:08:04;7.80;;;6.30;;
12433;SDS011;6281;49.038;8.372;2023-08-21T02:10:32;10.83;;;6.57;;
12433;SDS011;6281;49.038;8.372;2023-08-21T02:12:58;6.90;;;5.87;;
12433;SDS011;6281;49.038;8.372;2023-08-21T02:15:26;7.43;;;6.13;;
12433;SDS011;6281;49.038;8.372;2023-08-21T02:17:53;6.47;;;5.87;;
12433;SDS011;6281;49.038;8.372;2023-08-21T02:20:20;6.73;;;6.03;;
12433;SDS011;6281;49.038;8.372;2023-08-21T02:22:47;8.03;;;6.23;;
12433;SDS011;6281;49.038;8.372;2023-08-21T02:25:14;6.97;;;6.23;;
12433;SDS011;6281;49.038;8.372;2023-08-21T02:27:40;7.70;;;6.83;;
12433;SDS011;6281;49.038;8.372;2023-08-21T02:30:07;7.73;;;6.50;;
12433;SDS011;6281;49.038;8.372;2023-08-21T02:32:36;7.20;;;6.50;;
12433;SDS011;6281;49.038;8.372;2023-08-21T02:35:05;8.17;;;6.67;;
12433;SDS011;6281;49.038;8.372;2023-08-21T02:37:32;6.87;;;6.17;;
12433;SDS011;6281;49.038;8.372;2023-08-21T02:39:59;6.90;;;6.20;;
12433;SDS011;6281;49.038;8.372;2023-08-21T02:42:26;7.10;;;6.37;;
12433;SDS011;6281;49.038;8.372;2023-08-21T02:44:52;6.60;;;5.90;;
12433;SDS011;6281;49.038;8.372;2023-08-21T02:47:19;8.33;;;6.33;;
12433;SDS011;6281;49.038;8.372;2023-08-21T02:49:47;8.03;;;6.43;;
12433;SDS011;6281;49.038;8.372;2023-08-21T02:52:14;7.70;;;6.63;;
12433;SDS011;6281;49.038;8.372;2023-08-21T02:54:41;7.00;;;6.13;;
12433;SDS011;6281;49.038;8.372;2023-08-21T02:57:08;6.30;;;5.70;;
12433;SDS011;6281;49.038;8.372;2023-08-21T02:59:35;7.70;;;6.70;;
12433;SDS011;6281;49.038;8.372;2023-08-21T03:02:02;8.97;;;6.33;;
12433;SDS011;6281;49.038;8.372;2023-08-21T03:04:29;8.47;;;6.53;;
12433;SDS011;6281;49.038;8.372;2023-08-21T03:06:57;9.63;;;6.17;;
12433;SDS011;6281;49.038;8.372;2023-08-21T03:09:24;7.33;;;6.03;;
12433;SDS011;6281;49.038;8.372;2023-08-21T03:11:51;7.00;;;6.30;;
12433;SDS011;6281;49.038;8.372;2023-08-21T03:14:18;7.80;;;7.00;;
12433;SDS011;6281;49.038;8.372;2023-08-21T03:16:44;8.03;;;6.30;;
12433;SDS011;6281;49.038;8.372;2023-08-21T03:19:11;9.30;;;6.57;;
12433;SDS011;6281;49.038;8.372;2023-08-21T03:21:38;9.93;;;6.60;;
12433;SDS011;6281;49.038;8.372;2023-08-21T03:24:06;9.53;;;6.50;;
12433;SDS011;6281;49.038;8.372;2023-08-21T03:26:33;8.40;;;6.80;;
12433;SDS011;6281;49.038;8.372;2023-08-21T03:29:00;9.17;;;6.27;;
12433;SDS011;6281;49.038;8.372;2023-08-21T03:31:27;7.70;;;6.27;;
12433;SDS011;6281;49.038;8.372;2023-08-21T03:33:55;7.07;;;6.03;;
12433;SDS011;6281;49.038;8.372;2023-08-21T03:36:22;6.80;;;6.10;;
12433;SDS011;6281;49.038;8.372;2023-08-21T03:38:56;10.20;;;6.83;;
12433;SDS011;6281;49.038;8.372;2023-08-21T03:41:24;6.73;;;6.10;;
12433;SDS011;6281;49.038;8.372;2023-08-21T03:43:51;7.67;;;6.13;;
12433;SDS011;6281;49.038;8.372;2023-08-21T03:46:18;7.53;;;5.93;;
12433;SDS011;6281;49.038;8.372;2023-08-21T03:48:44;6.97;;;6.27;;
12433;SDS011;6281;49.038;8.372;2023-08-21T03:51:11;6.57;;;5.93;;
12433;SDS011;6281;49.038;8.372;2023-08-21T03:53:38;6.93;;;6.10;;
12433;SDS011;6281;49.038;8.372;2023-08-21T03:56:05;7.83;;;5.80;;
12433;SDS011;6281;49.038;8.372;2023-08-21T03:58:35;6.87;;;5.77;;
12433;SDS011;6281;49.038;8.372;2023-08-21T04:01:01;7.83;;;6.00;;
12433;SDS011;6281;49.038;8.372;2023-08-21T04:03:29;7.37;;;6.30;;
12433;SDS011;6281;49.038;8.372;2023-08-21T04:05:55;7.83;;;6.27;;
12433;SDS011;6281;49.038;8.372;2023-08-21T04:08:23;7.80;;;6.40;;
12433;SDS011;6281;49.038;8.372;2023-08-21T04:10:50;6.07;;;5.47;;
12433;SDS011;6281;49.038;8.372;2023-08-21T04:13:18;6.80;;;6.10;;
12433;SDS011;6281;49.038;8.372;2023-08-21T04:15:47;7.27;;;6.30;;
12433;SDS011;6281;49.038;8.372;2023-08-21T04:18:16;7.13;;;5.83;;
12433;SDS011;6281;49.038;8.372;2023-08-21T04:20:42;8.63;;;6.20;;
12433;SDS011;6281;49.038;8.372;2023-08-21T04:23:09;7.83;;;6.10;;
12433;SDS011;6281;49.038;8.372;2023-08-21T04:25:36;7.13;;;6.37;;
12433;SDS011;6281;49.038;8.372;2023-08-21T04:28:03;8.13;;;6.57;;
12433;SDS011;6281;49.038;8.372;2023-08-21T04:30:31;14.20;;;6.77;;
12433;SDS011;6281;49.038;8.372;2023-08-21T04:32:59;10.27;;;5.93;;
12433;SDS011;6281;49.038;8.372;2023-08-21T04:35:26;12.93;;;6.80;;
12433;SDS011;6281;49.038;8.372;2023-08-21T04:37:53;8.23;;;6.27;;
12433;SDS011;6281;49.038;8.372;2023-08-21T04:40:20;7.07;;;6.23;;
12433;SDS011;6281;49.038;8.372;2023-08-21T04:42:47;8.97;;;6.43;;
12433;SDS011;6281;49.038;8.372;2023-08-21T04:45:14;10.40;;;6.13;;
12433;SDS011;6281;49.038;8.372;2023-08-21T04:47:41;6.87;;;5.83;;
12433;SDS011;6281;49.038;8.372;2023-08-21T04:50:09;7.63;;;6.03;;
12433;SDS011;6281;49.038;8.372;2023-08-21T04:52:36;6.43;;;5.70;;
12433;SDS011;6281;49.038;8.372;2023-08-21T04:55:03;8.10;;;5.87;;
12433;SDS011;6281;49.038;8.372;2023-08-21T04:57:31;9.53;;;5.93;;
12433;SDS011;6281;49.038;8.372;2023-08-21T04:59:58;8.27;;;6.17;;
12433;SDS011;6281;49.038;8.372;2023-08-21T05:02:24;9.93;;;6.53;;
12433;SDS011;6281;49.038;8.372;2023-08-21T05:04:51;8.43;;;6.57;;
12433;SDS011;6281;49.038;8.372;2023-08-21T05:10:09;8.37;;;6.37;;
12433;SDS011;6281;49.038;8.372;2023-08-21T05:12:36;8.10;;;6.70;;
12433;SDS011;6281;49.038;8.372;2023-08-21T05:15:03;6.80;;;6.10;;
12433;SDS011;6281;49.038;8.372;2023-08-21T05:17:30;7.20;;;6.07;;
12433;SDS011;6281;49.038;8.372;2023-08-21T05:19:57;8.50;;;6.70;;
12433;SDS011;6281;49.038;8.372;2023-08-21T05:22:24;7.30;;;6.60;;
12433;SDS011;6281;49.038;8.372;2023-08-21T05:24:52;7.10;;;6.40;;
12433;SDS011;6281;49.038;8.372;2023-08-21T05:27:19;7.30;;;6.50;;
12433;SDS011;6281;49.038;8.372;2023-08-21T05:29:46;8.80;;;7.07;;
12433;SDS011;6281;49.038;8.372;2023-08-21T05:32:14;8.47;;;6.43;;
12433;SDS011;6281;49.038;8.372;2023-08-21T05:34:41;9.07;;;6.50;;
12433;SDS011;6281;49.038;8.372;2023-08-21T05:37:08;6.93;;;6.23;;
12433;SDS011;6281;49.038;8.372;2023-08-21T05:39:35;9.07;;;6.57;;
12433;SDS011;6281;49.038;8.372;2023-08-21T05:42:04;7.40;;;6.70;;
12433;SDS011;6281;49.038;8.372;2023-08-21T05:44:31;9.03;;;6.90;;
12433;SDS011;6281;49.038;8.372;2023-08-21T05:46:58;7.07;;;6.30;;
12433;SDS011;6281;49.038;8.372;2023-08-21T05:49:25;9.10;;;6.90;;
12433;SDS011;6281;49.038;8.372;2023-08-21T05:51:51;7.43;;;6.50;;
12433;SDS011;6281;49.038;8.372;2023-08-21T05:54:19;7.00;;;6.27;;
12433;SDS011;6281;49.038;8.372;2023-08-21T05:56:46;8.60;;;7.10;;
12433;SDS011;6281;49.038;8.372;2023-08-21T05:59:23;8.27;;;7.33;;
12433;SDS011;6281;49.038;8.372;2023-08-21T06:01:54;8.33;;;6.87;;
12433;SDS011;6281;49.038;8.372;2023-08-21T06:04:21;7.87;;;7.07;;
12433;SDS011;6281;49.038;8.372;2023-08-21T06:06:48;9.20;;;6.93;;
12433;SDS011;6281;49.038;8.372;2023-08-21T06:09:15;7.40;;;6.67;;
12433;SDS011;6281;49.038;8.372;2023-08-21T06:11:42;8.30;;;7.33;;
12433;SDS011;6281;49.038;8.372;2023-08-21T06:14:09;7.80;;;6.93;;
12433;SDS011;6281;49.038;8.372;2023-08-21T06:16:37;9.90;;;7.20;;
12433;SDS011;6281;49.038;8.372;2023-08-21T06:19:04;11.53;;;7.70;;
12433;SDS011;6281;49.038;8.372;2023-08-21T06:21:31;8.17;;;6.60;;
12433;SDS011;6281;49.038;8.372;2023-08-21T06:23:58;8.40;;;7.50;;
12433;SDS011;6281;49.038;8.372;2023-08-21T06:26:25;10.97;;;6.80;;
12433;SDS011;6281;49.038;8.372;2023-08-21T06:28:51;9.40;;;7.60;;
12433;SDS011;6281;49.038;8.372;2023-08-21T06:31:18;8.97;;;8.07;;
12433;SDS011;6281;49.038;8.372;2023-08-21T06:33:46;11.23;;;7.93;;
12433;SDS011;6281;49.038;8.372;2023-08-21T06:36:13;10.37;;;7.70;;
12433;SDS011;6281;49.038;8.372;2023-08-21T06:38:40;8.43;;;7.50;;
12433;SDS011;6281;49.038;8.372;2023-08-21T06:41:07;12.00;;;8.30;;
12433;SDS011;6281;49.038;8.372;2023-08-21T06:43:34;9.87;;;7.33;;
12433;SDS011;6281;49.038;8.372;2023-08-21T06:46:01;10.20;;;7.77;;
12433;SDS011;6281;49.038;8.372;2023-08-21T06:48:28;10.97;;;7.83;;
12433;SDS011;6281;49.038;8.372;2023-08-21T06:50:56;10.20;;;7.40;;
12433;SDS011;6281;49.038;8.372;2023-08-21T06:53:22;11.43;;;7.47;;
12433;SDS011;6281;49.038;8.372;2023-08-21T06:55:50;9.43;;;7.47;;
12433;SDS011;6281;49.038;8.372;2023-08-21T06:58:20;9.57;;;7.80;;
12433;SDS011;6281;49.038;8.372;2023-08-21T07:00:47;9.70;;;7.70;;
12433;SDS011;6281;49.038;8.372;2023-08-21T07:03:14;9.37;;;7.53;;
12433;SDS011;6281;49.038;8.372;2023-08-21T07:05:41;8.90;;;7.90;;
12433;SDS011;6281;49.038;8.372;2023-08-21T07:08:13;8.70;;;7.50;;
12433;SDS011;6281;49.038;8.372;2023-08-21T07:10:40;11.30;;;7.10;;
12433;SDS011;6281;49.038;8.372;2023-08-21T07:13:06;8.27;;;7.10;;
12433;SDS011;6281;49.038;8.372;2023-08-21T07:15:33;9.50;;;7.50;;
12433;SDS011;6281;49.038;8.372;2023-08-21T07:18:00;9.30;;;7.20;;
12433;SDS011;6281;49.038;8.372;2023-08-21T07:20:27;8.43;;;7.33;;
12433;SDS011;6281;49.038;8.372;2023-08-21T07:22:54;12.10;;;8.43;;
12433;SDS011;6281;49.038;8.372;2023-08-21T07:25:22;12.63;;;7.27;;
12433;SDS011;6281;49.038;8.372;2023-08-21T07:27:50;7.57;;;6.77;;
12433;SDS011;6281;49.038;8.372;2023-08-21T07:30:18;8.48;;;7.32;;
12433;SDS011;6281;49.038;8.372;2023-08-21T07:32:45;11.23;;;7.90;;
12433;SDS011;6281;49.038;8.372;2023-08-21T07:35:12;8.00;;;7.03;;
12433;SDS011;6281;49.038;8.372;2023-08-21T07:37:39;10.40;;;7.35;;
12433;SDS011;6281;49.038;8.372;2023-08-21T07:40:09;8.80;;;7.82;;
12433;SDS011;6281;49.038;8.372;2023-08-21T07:42:37;9.00;;;7.38;;
12433;SDS011;6281;49.038;8.372;2023-08-21T07:45:05;10.73;;;7.90;;
12433;SDS011;6281;49.038;8.372;2023-08-21T07:47:32;11.05;;;8.27;;
12433;SDS011;6281;49.038;8.372;2023-08-21T07:49:59;8.88;;;7.35;;
12433;SDS011;6281;49.038;8.372;2023-08-21T07:52:25;7.82;;;6.95;;
12433;SDS011;6281;49.038;8.372;2023-08-21T07:54:52;10.77;;;7.38;;
12433;SDS011;6281;49.038;8.372;2023-08-21T07:57:20;9.95;;;7.47;;
12433;SDS011;6281;49.038;8.372;2023-08-21T07:59:48;10.02;;;7.50;;
12433;SDS011;6281;49.038;8.372;2023-08-21T08:02:15;10.15;;;7.57;;
12433;SDS011;6281;49.038;8.372;2023-08-21T08:04:42;10.73;;;7.40;;
12433;SDS011;6281;49.038;8.372;2023-08-21T08:07:09;8.73;;;7.78;;
12433;SDS011;6281;49.038;8.372;2023-08-21T08:09:36;8.98;;;7.22;;
12433;SDS011;6281;49.038;8.372;2023-08-21T08:12:03;8.32;;;7.40;;
12433;SDS011;6281;49.038;8.372;2023-08-21T08:14:30;9.88;;;7.00;;
12433;SDS011;6281;49.038;8.372;2023-08-21T08:16:59;8.63;;;7.07;;
12433;SDS011;6281;49.038;8.372;2023-08-21T08:19:27;10.27;;;7.35;;
12433;SDS011;6281;49.038;8.372;2023-08-21T08:21:54;8.50;;;7.53;;
12433;SDS011;6281;49.038;8.372;2023-08-21T08:24:21;9.27;;;7.03;;
12433;SDS011;6281;49.038;8.372;2023-08-21T08:26:48;8.38;;;6.72;;
12433;SDS011;6281;49.038;8.372;2023-08-21T08:29:15;8.93;;;6.70;;
12433;SDS011;6281;49.038;8.372;2023-08-21T08:31:42;7.40;;;6.70;;
12433;SDS011;6281;49.038;8.372;2023-08-21T08:34:11;7.95;;;6.95;;
12433;SDS011;6281;49.038;8.372;2023-08-21T08:36:37;9.25;;;7.80;;
12433;SDS011;6281;49.038;8.372;2023-08-21T08:39:06;8.45;;;6.95;;
12433;SDS011;6281;49.038;8.372;2023-08-21T08:41:36;11.40;;;7.32;;
12433;SDS011;6281;49.038;8.372;2023-08-21T08:44:09;9.25;;;7.30;;
12433;SDS011;6281;49.038;8.372;2023-08-21T08:46:42;8.00;;;7.20;;
12433;SDS011;6281;49.038;8.372;2023-08-21T08:49:11;8.98;;;7.28;;
12433;SDS011;6281;49.038;8.372;2023-08-21T08:51:38;7.68;;;6.88;;
12433;SDS011;6281;49.038;8.372;2023-08-21T08:54:08;9.27;;;6.45;;
12433;SDS011;6281;49.038;8.372;2023-08-21T08:56:37;7.82;;;6.90;;
12433;SDS011;6281;49.038;8.372;2023-08-21T08:59:05;8.60;;;6.50;;
12433;SDS011;6281;49.038;8.372;2023-08-21T09:01:34;9.13;;;6.30;;
12433;SDS011;6281;49.038;8.372;2023-08-21T09:04:00;8.45;;;7.05;;
12433;SDS011;6281;49.038;8.372;2023-08-21T09:06:30;7.90;;;6.97;;
12433;SDS011;6281;49.038;8.372;2023-08-21T09:08:59;9.43;;;6.50;;
12433;SDS011;6281;49.038;8.372;2023-08-21T09:11:26;7.28;;;6.57;;
12433;SDS011;6281;49.038;8.372;2023-08-21T09:13:54;9.38;;;6.50;;
12433;SDS011;6281;49.038;8.372;2023-08-21T09:16:21;10.15;;;6.55;;
12433;SDS011;6281;49.038;8.372;2023-08-21T09:18:50;7.55;;;6.28;;
12433;SDS011;6281;49.038;8.372;2023-08-21T09:21:19;7.15;;;6.45;;
12433;SDS011;6281;49.038;8.372;2023-08-21T09:23:49;9.25;;;6.28;;
12433;SDS011;6281;49.038;8.372;2023-08-21T09:26:23;6.40;;;5.70;;
12433;SDS011;6281;49.038;8.372;2023-08-21T09:28:51;6.30;;;5.60;;
12433;SDS011;6281;49.038;8.372;2023-08-21T09:31:21;7.47;;;5.97;;
12433;SDS011;6281;49.038;8.372;2023-08-21T09:33:54;8.05;;;5.82;;
12433;SDS011;6281;49.038;8.372;2023-08-21T09:36:22;6.55;;;5.25;;
12433;SDS011;6281;49.038;8.372;2023-08-21T09:38:51;7.35;;;5.25;;
12433;SDS011;6281;49.038;8.372;2023-08-21T09:41:19;5.82;;;5.22;;
12433;SDS011;6281;49.038;8.372;2023-08-21T09:43:46;7.00;;;5.45;;
12433;SDS011;6281;49.038;8.372;2023-08-21T09:46:13;6.25;;;4.90;;
12433;SDS011;6281;49.038;8.372;2023-08-21T09:48:41;5.30;;;4.80;;
12433;SDS011;6281;49.038;8.372;2023-08-21T09:51:09;6.45;;;5.35;;
12433;SDS011;6281;49.038;8.372;2023-08-21T09:53:36;6.88;;;5.75;;
12433;SDS011;6281;49.038;8.372;2023-08-21T09:56:05;8.25;;;5.57;;
12433;SDS011;6281;49.038;8.372;2023-08-21T09:58:33;7.57;;;5.43;;
12433;SDS011;6281;49.038;8.372;2023-08-21T10:01:01;6.30;;;5.70;;
12433;SDS011;6281;49.038;8.372;2023-08-21T10:03:36;5.43;;;4.88;;
12433;SDS011;6281;49.038;8.372;2023-08-21T10:06:04;6.25;;;5.53;;
12433;SDS011;6281;49.038;8.372;2023-08-21T10:08:32;4.97;;;4.47;;
12433;SDS011;6281;49.038;8.372;2023-08-21T10:11:05;8.43;;;5.45;;
12433;SDS011;6281;49.038;8.372;2023-08-21T10:13:33;5.82;;;5.18;;
12433;SDS011;6281;49.038;8.372;2023-08-21T10:16:00;6.03;;;4.95;;
12433;SDS011;6281;49.038;8.372;2023-08-21T10:18:29;5.82;;;5.13;;
12433;SDS011;6281;49.038;8.372;2023-08-21T10:21:02;7.05;;;4.93;;
12433;SDS011;6281;49.038;8.372;2023-08-21T10:23:38;8.40;;;4.95;;
12433;SDS011;6281;49.038;8.372;2023-08-21T10:26:07;6.45;;;4.70;;
12433;SDS011;6281;49.038;8.372;2023-08-21T10:28:42;5.53;;;4.95;;
12433;SDS011;6281;49.038;8.372;2023-08-21T10:31:26;5.53;;;4.70;;
12433;SDS011;6281;49.038;8.372;2023-08-21T10:33:54;6.25;;;5.10;;
12433;SDS011;6281;49.038;8.372;2023-08-21T10:36:37;5.07;;;4.57;;
12433;SDS011;6281;49.038;8.372;2023-08-21T10:39:07;6.43;;;5.22;;
12433;SDS011;6281;49.038;8.372;2023-08-21T10:41:41;5.90;;;5.07;;
12433;SDS011;6281;49.038;8.372;2023-08-21T10:44:07;7.22;;;5.18;;
12433;SDS011;6281;49.038;8.372;2023-08-21T10:49:16;5.57;;;5.07;;
12433;SDS011;6281;49.038;8.372;2023-08-21T10:51:43;6.78;;;4.78;;
12433;SDS011;6281;49.038;8.372;2023-08-21T10:54:10;5.18;;;4.70;;
12433;SDS011;6281;49.038;8.372;2023-08-21T10:56:37;6.18;;;5.50;;
12433;SDS011;6281;49.038;8.372;2023-08-21T10:59:05;6.80;;;4.85;;
12433;SDS011;6281;49.038;8.372;2023-08-21T11:01:41;5.25;;;4.78;;
12433;SDS011;6281;49.038;8.372;2023-08-21T11:04:09;5.22;;;4.72;;
12433;SDS011;6281;49.038;8.372;2023-08-21T11:06:36;7.60;;;4.80;;
12433;SDS011;6281;49.038;8.372;2023-08-21T11:09:04;7.28;;;4.85;;
12433;SDS011;6281;49.038;8.372;2023-08-21T11:11:31;5.70;;;5.15;;
12433;SDS011;6281;49.038;8.372;2023-08-21T11:13:57;5.57;;;5.07;;
12433;SDS011;6281;49.038;8.372;2023-08-21T11:16:25;5.45;;;4.88;;
12433;SDS011;6281;49.038;8.372;2023-08-21T11:18:53;5.95;;;5.03;;
12433;SDS011;6281;49.038;8.372;2023-08-21T11:21:20;5.43;;;4.93;;
12433;SDS011;6281;49.038;8.372;2023-08-21T11:23:50;6.13;;;5.47;;
12433;SDS011;6281;49.038;8.372;2023-08-21T11:26:17;6.57;;;4.65;;
12433;SDS011;6281;49.038;8.372;2023-08-21T11:28:44;6.22;;;4.72;;
12433;SDS011;6281;49.038;8.372;2023-08-21T11:31:11;5.13;;;4.68;;
12433;SDS011;6281;49.038;8.372;2023-08-21T11:33:40;5.53;;;5.03;;
12433;SDS011;6281;49.038;8.372;2023-08-21T11:36:06;5.82;;;5.28;;
12433;SDS011;6281;49.038;8.372;2023-08-21T11:38:34;5.75;;;5.25;;
12433;SDS011;6281;49.038;8.372;2023-08-21T11:41:01;5.43;;;4.90;;
12433;SDS011;6281;49.038;8.372;2023-08-21T11:43:35;5.53;;;5.03;;
12433;SDS011;6281;49.038;8.372;2023-08-21T11:46:02;5.85;;;5.18;;
12433;SDS011;6281;49.038;8.372;2023-08-21T11:48:29;5.80;;;4.85;;
12433;SDS011;6281;49.038;8.372;2023-08-21T11:50:57;6.72;;;5.25;;
12433;SDS011;6281;49.038;8.372;2023-08-21T11:53:31;5.40;;;4.85;;
12433;SDS011;6281;49.038;8.372;2023-08-21T11:55:59;6.20;;;5.00;;
12433;SDS011;6281;49.038;8.372;2023-08-21T11:58:26;4.85;;;4.35;;
12433;SDS011;6281;49.038;8.372;2023-08-21T12:00:53;6.57;;;4.18;;
12433;SDS011;6281;49.038;8.372;2023-08-21T12:03:20;5.95;;;4.90;;
12433;SDS011;6281;49.038;8.372;2023-08-21T12:05:47;4.97;;;4.50;;
12433;SDS011;6281;49.038;8.372;2023-08-21T12:08:15;5.25;;;4.63;;
12433;SDS011;6281;49.038;8.372;2023-08-21T12:10:52;5.35;;;4.85;;
12433;SDS011;6281;49.038;8.372;2023-08-21T12:13:19;6.45;;;4.75;;
12433;SDS011;6281;49.038;8.372;2023-08-21T12:15:45;5.78;;;4.45;;
12433;SDS011;6281;49.038;8.372;2023-08-21T12:18:12;7.22;;;4.63;;
12433;SDS011;6281;49.038;8.372;2023-08-21T12:20:39;5.50;;;4.95;;
12433;SDS011;6281;49.038;8.372;2023-08-21T12:23:06;7.22;;;4.93;;
12433;SDS011;6281;49.038;8.372;2023-08-21T12:25:34;5.10;;;4.68;;
12433;SDS011;6281;49.038;8.372;2023-08-21T12:30:31;5.65;;;4.50;;
12433;SDS011;6281;49.038;8.372;2023-08-21T12:32:58;5.00;;;4.55;;
12433;SDS011;6281;49.038;8.372;2023-08-21T12:35:25;5.57;;;4.90;;
12433;SDS011;6281;49.038;8.372;2023-08-21T12:37:57;8.40;;;5.00;;
12433;SDS011;6281;49.038;8.372;2023-08-21T12:40:30;6.18;;;4.72;;
12433;SDS011;6281;49.038;8.372;2023-08-21T12:42:58;5.40;;;4.82;;
12433;SDS011;6281;49.038;8.372;2023-08-21T12:45:25;5.78;;;4.72;;
12433;SDS011;6281;49.038;8.372;2023-08-21T12:47:51;5.70;;;5.05;;
12433;SDS011;6281;49.038;8.372;2023-08-21T12:50:18;5.40;;;4.90;;
12433;SDS011;6281;49.038;8.372;2023-08-21T12:52:45;5.68;;;4.82;;
12433;SDS011;6281;49.038;8.372;2023-08-21T12:55:12;7.85;;;5.00;;
12433;SDS011;6281;49.038;8.372;2023-08-21T12:57:39;5.10;;;4.63;;
12433;SDS011;6281;49.038;8.372;2023-08-21T13:00:07;4.85;;;4.35;;
12433;SDS011;6281;49.038;8.372;2023-08-21T13:02:35;5.57;;;4.43;;
12433;SDS011;6281;49.038;8.372;2023-08-21T13:05:02;5.07;;;4.50;;
12433;SDS011;6281;49.038;8.372;2023-08-21T13:07:31;5.20;;;4.70;;
12433;SDS011;6281;49.038;8.372;2023-08-21T13:09:57;5.32;;;4.80;;
12433;SDS011;6281;49.038;8.372;2023-08-21T13:12:25;6.53;;;4.40;;
12433;SDS011;6281;49.038;8.372;2023-08-21T13:14:52;5.40;;;4.85;;
12433;SDS011;6281;49.038;8.372;2023-08-21T13:17:20;5.03;;;4.22;;
12433;SDS011;6281;49.038;8.372;2023-08-21T13:19:47;7.40;;;4.95;;
12433;SDS011;6281;49.038;8.372;2023-08-21T13:22:15;5.53;;;5.03;;
12433;SDS011;6281;49.038;8.372;2023-08-21T13:24:43;5.65;;;4.70;;
12433;SDS011;6281;49.038;8.372;2023-08-21T13:27:10;5.80;;;4.60;;
12433;SDS011;6281;49.038;8.372;2023-08-21T13:29:36;4.97;;;4.43;;
12433;SDS011;6281;49.038;8.372;2023-08-21T13:32:05;4.65;;;4.25;;
12433;SDS011;6281;49.038;8.372;2023-08-21T13:34:33;4.70;;;4.30;;
12433;SDS011;6281;49.038;8.372;2023-08-21T13:37:00;5.13;;;4.60;;
12433;SDS011;6281;49.038;8.372;2023-08-21T13:39:27;4.50;;;4.10;;
12433;SDS011;6281;49.038;8.372;2023-08-21T13:41:53;6.25;;;4.80;;
12433;SDS011;6281;49.038;8.372;2023-08-21T13:44:20;5.82;;;4.63;;
12433;SDS011;6281;49.038;8.372;2023-08-21T13:46:47;4.65;;;4.18;;
12433;SDS011;6281;49.038;8.372;2023-08-21T13:49:14;5.25;;;4.15;;
12433;SDS011;6281;49.038;8.372;2023-08-21T13:51:42;5.68;;;4.13;;
12433;SDS011;6281;49.038;8.372;2023-08-21T13:54:08;4.53;;;4.10;;
12433;SDS011;6281;49.038;8.372;2023-08-21T13:56:36;4.53;;;4.13;;
12433;SDS011;6281;49.038;8.372;2023-08-21T13:59:03;4.55;;;4.15;;
12433;SDS011;6281;49.038;8.372;2023-08-21T14:01:30;6.35;;;4.00;;
12433;SDS011;6281;49.038;8.372;2023-08-21T14:03:56;4.70;;;4.30;;
12433;SDS011;6281;49.038;8.372;2023-08-21T14:06:23;4.97;;;4.45;;
12433;SDS011;6281;49.038;8.372;2023-08-21T14:08:51;4.05;;;3.67;;
12433;SDS011;6281;49.038;8.372;2023-08-21T14:11:18;5.00;;;4.20;;
12433;SDS011;6281;49.038;8.372;2023-08-21T14:13:45;4.80;;;4.40;;
12433;SDS011;6281;49.038;8.372;2023-08-21T14:16:11;5.03;;;4.20;;
12433;SDS011;6281;49.038;8.372;2023-08-21T14:18:38;5.22;;;4.43;;
12433;SDS011;6281;49.038;8.372;2023-08-21T14:21:05;4.95;;;3.80;;
12433;SDS011;6281;49.038;8.372;2023-08-21T14:23:32;4.63;;;3.88;;
12433;SDS011;6281;49.038;8.372;2023-08-21T14:26:00;8.07;;;4.47;;
12433;SDS011;6281;49.038;8.372;2023-08-21T14:28:27;4.53;;;3.85;;
12433;SDS011;6281;49.038;8.372;2023-08-21T14:30:54;5.28;;;4.03;;
12433;SDS011;6281;49.038;8.372;2023-08-21T14:33:21;7.63;;;3.95;;
12433;SDS011;6281;49.038;8.372;2023-08-21T14:35:48;5.10;;;4.50;;
12433;SDS011;6281;49.038;8.372;2023-08-21T14:38:15;4.47;;;4.10;;
12433;SDS011;6281;49.038;8.372;2023-08-21T14:40:42;5.60;;;4.28;;
12433;SDS011;6281;49.038;8.372;2023-08-21T14:43:10;4.68;;;4.20;;
12433;SDS011;6281;49.038;8.372;2023-08-21T14:45:37;5.25;;;4.07;;
12433;SDS011;6281;49.038;8.372;2023-08-21T14:48:04;5.20;;;4.43;;
12433;SDS011;6281;49.038;8.372;2023-08-21T14:50:31;4.57;;;4.20;;
12433;SDS011;6281;49.038;8.372;2023-08-21T14:52:57;6.90;;;4.50;;
12433;SDS011;6281;49.038;8.372;2023-08-21T14:55:24;4.80;;;4.40;;
12433;SDS011;6281;49.038;8.372;2023-08-21T14:57:51;5.50;;;4.20;;
12433;SDS011;6281;49.038;8.372;2023-08-21T15:00:19;4.50;;;4.10;;
12433;SDS011;6281;49.038;8.372;2023-08-21T15:02:46;4.28;;;3.88;;
12433;SDS011;6281;49.038;8.372;2023-08-21T15:05:13;4.95;;;3.58;;
12433;SDS011;6281;49.038;8.372;2023-08-21T15:07:42;5.18;;;3.90;;
12433;SDS011;6281;49.038;8.372;2023-08-21T15:10:09;6.70;;;4.32;;
12433;SDS011;6281;49.038;8.372;2023-08-21T15:12:36;4.90;;;4.38;;
12433;SDS011;6281;49.038;8.372;2023-08-21T15:15:04;4.43;;;4.03;;
12433;SDS011;6281;49.038;8.372;2023-08-21T15:17:32;4.35;;;4.03;;